sensor_id;sensor_type;location;lat;lon;timestamp;pressure;altitude;pressure_sealevel;temperature;humidity
5062;BME280;2351;50.812;12.872;2023-01-05T00:01:11;97500.72;;;8.23;100.00
5062;BME280;2351;50.812;12.872;2023-01-05T00:03:45;97486.56;;;8.24;100.00
5062;BME280;2351;50.812;12.872;2023-01-05T00:06:16;97500.72;;;8.23;100.00
5062;BME280;2351;50.812;12.872;2023-01-05T00:08:48;97486.63;;;8.12;100.00
5062;BME280;2351;50.812;12.872;2023-01-05T00:11:22;97491.00;;;8.02;100.00
5062;BME280;2351;50.812;12.872;2023-01-05T00:14:13;97504.81;;;7.94;100.00
5062;BME280;2351;50.812;12.872;2023-01-05T00:17:03;97499.44;;;7.84;100.00
5062;BME280;2351;50.812;12.872;2023-01-05T00:19:54;97501.63;;;7.79;100.00
5062;BME280;2351;50.812;12.872;2023-01-05T00:22:45;97501.88;;;7.76;100.00
5062;BME280;2351;50.812;12.872;2023-01-05T00:25:19;97504.75;;;7.73;100.00
5062;BME280;2351;50.812;12.872;2023-01-05T00:27:51;97508.22;;;7.74;100.00
5062;BME280;2351;50.812;12.872;2023-01-05T00:30:25;97510.03;;;7.73;100.00
5062;BME280;2351;50.812;12.872;2023-01-05T00:32:57;97505.47;;;7.75;100.00
5062;BME280;2351;50.812;12.872;2023-01-05T00:35:30;97509.78;;;7.76;100.00
5062;BME280;2351;50.812;12.872;2023-01-05T00:38:02;97505.94;;;7.80;100.00
5062;BME280;2351;50.812;12.872;2023-01-05T00:40:34;97507.00;;;7.89;100.00
5062;BME280;2351;50.812;12.872;2023-01-05T00:43:06;97514.88;;;7.89;100.00
5062;BME280;2351;50.812;12.872;2023-01-05T00:45:38;97509.00;;;7.86;100.00
5062;BME280;2351;50.812;12.872;2023-01-05T00:48:09;97520.16;;;7.89;100.00
5062;BME280;2351;50.812;12.872;2023-01-05T00:50:42;97512.38;;;7.88;100.00
5062;BME280;2351;50.812;12.872;2023-01-05T00:53:14;97516.66;;;7.89;100.00
5062;BME280;2351;50.812;12.872;2023-01-05T00:55:54;97515.72;;;7.90;100.00
5062;BME280;2351;50.812;12.872;2023-01-05T00:58:26;97512.13;;;7.91;100.00
5062;BME280;2351;50.812;12.872;2023-01-05T01:00:58;97510.91;;;7.95;100.00
5062;BME280;2351;50.812;12.872;2023-01-05T01:03:30;97509.56;;;8.01;100.00
5062;BME280;2351;50.812;12.872;2023-01-05T01:06:03;97513.16;;;7.99;100.00
5062;BME280;2351;50.812;12.872;2023-01-05T01:08:35;97510.28;;;8.03;100.00
5062;BME280;2351;50.812;12.872;2023-01-05T01:11:08;97507.06;;;7.99;100.00
5062;BME280;2351;50.812;12.872;2023-01-05T01:13:40;97510.66;;;7.98;100.00
5062;BME280;2351;50.812;12.872;2023-01-05T01:16:13;97510.41;;;8.01;100.00
5062;BME280;2351;50.812;12.872;2023-01-05T01:18:45;97519.84;;;8.04;99.52
5062;BME280;2351;50.812;12.872;2023-01-05T01:21:18;97516.41;;;8.03;98.78
5062;BME280;2351;50.812;12.872;2023-01-05T01:23:50;97514.91;;;8.10;98.58
5062;BME280;2351;50.812;12.872;2023-01-05T01:26:21;97516.31;;;8.14;97.67
5062;BME280;2351;50.812;12.872;2023-01-05T01:28:53;97497.06;;;8.14;97.12
5062;BME280;2351;50.812;12.872;2023-01-05T01:31:25;97501.94;;;8.19;97.13
5062;BME280;2351;50.812;12.872;2023-01-05T01:33:56;97494.72;;;8.21;96.90
5062;BME280;2351;50.812;12.872;2023-01-05T01:36:29;97493.16;;;8.18;93.39
5062;BME280;2351;50.812;12.872;2023-01-05T01:39:01;97506.75;;;8.35;92.45
5062;BME280;2351;50.812;12.872;2023-01-05T01:41:33;97503.72;;;8.39;90.36
5062;BME280;2351;50.812;12.872;2023-01-05T01:47:17;97494.25;;;8.48;87.34
5062;BME280;2351;50.812;12.872;2023-01-05T01:49:52;97507.72;;;8.55;85.90
5062;BME280;2351;50.812;12.872;2023-01-05T01:52:26;97506.25;;;8.62;85.75
5062;BME280;2351;50.812;12.872;2023-01-05T01:55:01;97500.47;;;8.68;84.67
5062;BME280;2351;50.812;12.872;2023-01-05T01:57:35;97494.94;;;8.71;83.67
5062;BME280;2351;50.812;12.872;2023-01-05T02:00:09;97490.06;;;8.77;82.55
5062;BME280;2351;50.812;12.872;2023-01-05T02:02:45;97489.81;;;8.80;81.38
5062;BME280;2351;50.812;12.872;2023-01-05T02:05:19;97487.88;;;8.82;81.33
5062;BME280;2351;50.812;12.872;2023-01-05T02:07:53;97492.03;;;8.84;80.05
5062;BME280;2351;50.812;12.872;2023-01-05T02:10:35;97484.00;;;8.86;79.62
5062;BME280;2351;50.812;12.872;2023-01-05T02:13:19;97483.03;;;8.87;79.22
5062;BME280;2351;50.812;12.872;2023-01-05T02:16:01;97477.06;;;8.85;78.88
5062;BME280;2351;50.812;12.872;2023-01-05T02:18:46;97460.97;;;8.88;78.65
5062;BME280;2351;50.812;12.872;2023-01-05T02:21:29;97466.69;;;8.93;78.25
5062;BME280;2351;50.812;12.872;2023-01-05T02:24:31;97459.88;;;9.00;77.50
5062;BME280;2351;50.812;12.872;2023-01-05T02:33:49;97472.41;;;9.08;77.29
5062;BME280;2351;50.812;12.872;2023-01-05T02:36:27;97467.41;;;9.05;77.29
5062;BME280;2351;50.812;12.872;2023-01-05T02:39:04;97471.59;;;9.08;77.21
5062;BME280;2351;50.812;12.872;2023-01-05T02:41:43;97469.66;;;9.10;76.64
5062;BME280;2351;50.812;12.872;2023-01-05T02:44:16;97457.16;;;9.12;76.55
5062;BME280;2351;50.812;12.872;2023-01-05T02:46:58;97469.66;;;9.10;76.23
5062;BME280;2351;50.812;12.872;2023-01-05T02:49:34;97466.56;;;9.04;76.71
5062;BME280;2351;50.812;12.872;2023-01-05T02:52:08;97468.50;;;9.02;77.28
5062;BME280;2351;50.812;12.872;2023-01-05T02:54:46;97458.38;;;8.98;77.40
5062;BME280;2351;50.812;12.872;2023-01-05T02:57:24;97468.06;;;8.97;78.13
5062;BME280;2351;50.812;12.872;2023-01-05T03:00:15;97462.94;;;8.96;78.28
5062;BME280;2351;50.812;12.872;2023-01-05T03:02:52;97467.38;;;8.95;78.60
5062;BME280;2351;50.812;12.872;2023-01-05T03:05:30;97464.16;;;8.92;79.73
5062;BME280;2351;50.812;12.872;2023-01-05T03:08:04;97463.72;;;8.86;79.91
5062;BME280;2351;50.812;12.872;2023-01-05T03:10:46;97476.81;;;8.88;79.92
5062;BME280;2351;50.812;12.872;2023-01-05T03:13:41;97469.84;;;8.87;79.52
5062;BME280;2351;50.812;12.872;2023-01-05T03:16:19;97479.56;;;8.86;79.89
5062;BME280;2351;50.812;12.872;2023-01-05T03:18:53;97473.47;;;8.86;79.82
5062;BME280;2351;50.812;12.872;2023-01-05T03:21:45;97472.75;;;8.84;79.65
5062;BME280;2351;50.812;12.872;2023-01-05T03:24:36;97480.25;;;8.88;79.26
5062;BME280;2351;50.812;12.872;2023-01-05T03:27:27;97482.34;;;8.85;78.68
5062;BME280;2351;50.812;12.872;2023-01-05T03:30:18;97482.34;;;8.85;78.31
5062;BME280;2351;50.812;12.872;2023-01-05T03:33:13;97489.75;;;8.91;77.80
5062;BME280;2351;50.812;12.872;2023-01-05T03:36:04;97478.22;;;8.92;76.83
5062;BME280;2351;50.812;12.872;2023-01-05T03:38:41;97477.91;;;8.95;76.43
5062;BME280;2351;50.812;12.872;2023-01-05T03:41:15;97476.69;;;8.99;74.75
5062;BME280;2351;50.812;12.872;2023-01-05T03:43:49;97474.50;;;9.04;73.61
5062;BME280;2351;50.812;12.872;2023-01-05T03:46:21;97479.50;;;9.08;73.12
5062;BME280;2351;50.812;12.872;2023-01-05T03:48:53;97485.94;;;9.15;73.02
5062;BME280;2351;50.812;12.872;2023-01-05T03:51:24;97490.81;;;9.19;72.21
5062;BME280;2351;50.812;12.872;2023-01-05T03:53:57;97489.94;;;9.19;71.99
5062;BME280;2351;50.812;12.872;2023-01-05T03:56:29;97488.00;;;9.21;72.13
5062;BME280;2351;50.812;12.872;2023-01-05T03:59:01;97481.06;;;9.20;71.89
5062;BME280;2351;50.812;12.872;2023-01-05T04:01:32;97480.78;;;9.23;71.82
5062;BME280;2351;50.812;12.872;2023-01-05T04:04:04;97482.47;;;9.24;71.66
5062;BME280;2351;50.812;12.872;2023-01-05T04:06:36;97502.50;;;9.27;71.44
5062;BME280;2351;50.812;12.872;2023-01-05T04:09:09;97505.25;;;9.25;71.35
5062;BME280;2351;50.812;12.872;2023-01-05T04:11:41;97483.03;;;9.28;71.53
5062;BME280;2351;50.812;12.872;2023-01-05T04:14:13;97488.75;;;9.33;71.77
5062;BME280;2351;50.812;12.872;2023-01-05T04:16:44;97491.53;;;9.31;71.52
5062;BME280;2351;50.812;12.872;2023-01-05T04:19:16;97505.69;;;9.30;72.06
5062;BME280;2351;50.812;12.872;2023-01-05T04:21:48;97511.09;;;9.29;71.91
5062;BME280;2351;50.812;12.872;2023-01-05T04:24:21;97507.91;;;9.25;72.25
5062;BME280;2351;50.812;12.872;2023-01-05T04:26:52;97513.34;;;9.24;72.56
5062;BME280;2351;50.812;12.872;2023-01-05T04:29:24;97518.34;;;9.27;72.40
5062;BME280;2351;50.812;12.872;2023-01-05T04:31:56;97522.59;;;9.18;73.00
5062;BME280;2351;50.812;12.872;2023-01-05T04:34:27;97533.16;;;9.18;73.22
5062;BME280;2351;50.812;12.872;2023-01-05T04:36:59;97527.19;;;9.16;73.02
5062;BME280;2351;50.812;12.872;2023-01-05T04:39:32;97535.25;;;9.14;73.61
5062;BME280;2351;50.812;12.872;2023-01-05T04:42:04;97527.47;;;9.13;73.46
5062;BME280;2351;50.812;12.872;2023-01-05T04:44:36;97536.88;;;9.06;73.57
5062;BME280;2351;50.812;12.872;2023-01-05T04:47:07;97530.19;;;9.01;73.88
5062;BME280;2351;50.812;12.872;2023-01-05T04:49:39;97537.41;;;8.99;74.35
5062;BME280;2351;50.812;12.872;2023-01-05T04:52:10;97544.88;;;8.94;74.13
5062;BME280;2351;50.812;12.872;2023-01-05T04:54:44;97542.38;;;8.93;74.42
5062;BME280;2351;50.812;12.872;2023-01-05T04:57:15;97536.28;;;8.92;74.71
5062;BME280;2351;50.812;12.872;2023-01-05T04:59:47;97533.91;;;8.89;74.83
5062;BME280;2351;50.812;12.872;2023-01-05T05:02:19;97541.09;;;8.87;75.17
5062;BME280;2351;50.812;12.872;2023-01-05T05:04:50;97542.59;;;8.80;75.09
5062;BME280;2351;50.812;12.872;2023-01-05T05:07:22;97542.84;;;8.77;75.27
5062;BME280;2351;50.812;12.872;2023-01-05T05:09:55;97551.16;;;8.72;75.75
5062;BME280;2351;50.812;12.872;2023-01-05T05:12:27;97550.59;;;8.68;75.71
5062;BME280;2351;50.812;12.872;2023-01-05T05:14:59;97552.69;;;8.74;75.54
5062;BME280;2351;50.812;12.872;2023-01-05T05:17:30;97550.34;;;8.71;75.64
5062;BME280;2351;50.812;12.872;2023-01-05T05:20:03;97551.16;;;8.72;75.63
5062;BME280;2351;50.812;12.872;2023-01-05T05:22:36;97538.47;;;8.66;75.99
5062;BME280;2351;50.812;12.872;2023-01-05T05:25:10;97555.03;;;8.68;75.85
5062;BME280;2351;50.812;12.872;2023-01-05T05:27:41;97564.16;;;8.64;76.12
5062;BME280;2351;50.812;12.872;2023-01-05T05:30:13;97571.97;;;8.65;76.23
5062;BME280;2351;50.812;12.872;2023-01-05T05:32:45;97565.50;;;8.58;76.51
5062;BME280;2351;50.812;12.872;2023-01-05T05:35:17;97583.97;;;8.58;76.32
5062;BME280;2351;50.812;12.872;2023-01-05T05:37:48;97558.56;;;8.57;76.49
5062;BME280;2351;50.812;12.872;2023-01-05T05:40:22;97566.38;;;8.58;76.24
5062;BME280;2351;50.812;12.872;2023-01-05T05:42:54;97563.84;;;8.57;75.95
5062;BME280;2351;50.812;12.872;2023-01-05T05:45:25;97588.69;;;8.54;76.11
5062;BME280;2351;50.812;12.872;2023-01-05T05:47:57;97563.28;;;8.53;76.20
5062;BME280;2351;50.812;12.872;2023-01-05T05:50:30;97589.66;;;8.53;76.28
5062;BME280;2351;50.812;12.872;2023-01-05T05:53:02;97590.72;;;8.51;76.65
5062;BME280;2351;50.812;12.872;2023-01-05T05:55:35;97585.44;;;8.51;76.51
5062;BME280;2351;50.812;12.872;2023-01-05T05:58:06;97591.06;;;8.46;76.25
5062;BME280;2351;50.812;12.872;2023-01-05T06:00:38;97593.16;;;8.42;77.05
5062;BME280;2351;50.812;12.872;2023-01-05T06:03:11;97594.22;;;8.40;77.23
5062;BME280;2351;50.812;12.872;2023-01-05T06:05:43;97590.03;;;8.37;77.49
5062;BME280;2351;50.812;12.872;2023-01-05T06:08:15;97595.56;;;8.34;77.78
5062;BME280;2351;50.812;12.872;2023-01-05T06:10:48;97599.16;;;8.33;78.00
5062;BME280;2351;50.812;12.872;2023-01-05T06:13:21;97599.69;;;8.27;78.42
5062;BME280;2351;50.812;12.872;2023-01-05T06:15:53;97596.06;;;8.28;78.20
5062;BME280;2351;50.812;12.872;2023-01-05T06:18:25;97603.16;;;8.27;78.15
5062;BME280;2351;50.812;12.872;2023-01-05T06:20:57;97601.88;;;8.22;78.59
5062;BME280;2351;50.812;12.872;2023-01-05T06:23:29;97622.34;;;8.18;78.16
5062;BME280;2351;50.812;12.872;2023-01-05T06:26:02;97604.53;;;8.10;78.75
5062;BME280;2351;50.812;12.872;2023-01-05T06:28:34;97614.50;;;8.07;79.00
5062;BME280;2351;50.812;12.872;2023-01-05T06:31:05;97614.72;;;8.04;79.20
5062;BME280;2351;50.812;12.872;2023-01-05T06:33:37;97613.19;;;8.01;79.63
5062;BME280;2351;50.812;12.872;2023-01-05T06:36:09;97623.75;;;8.01;79.81
5062;BME280;2351;50.812;12.872;2023-01-05T06:38:40;97623.25;;;7.96;80.43
5062;BME280;2351;50.812;12.872;2023-01-05T06:41:13;97627.00;;;7.93;80.90
5062;BME280;2351;50.812;12.872;2023-01-05T06:43:45;97627.25;;;7.90;81.08
5062;BME280;2351;50.812;12.872;2023-01-05T06:46:17;97635.50;;;7.86;81.62
5062;BME280;2351;50.812;12.872;2023-01-05T06:48:48;97636.59;;;7.83;81.78
5062;BME280;2351;50.812;12.872;2023-01-05T06:51:20;97643.66;;;7.82;82.25
5062;BME280;2351;50.812;12.872;2023-01-05T06:53:52;97639.09;;;7.84;82.54
5062;BME280;2351;50.812;12.872;2023-01-05T06:56:25;97640.03;;;7.83;83.32
5062;BME280;2351;50.812;12.872;2023-01-05T06:58:57;97643.78;;;7.81;83.74
5062;BME280;2351;50.812;12.872;2023-01-05T07:01:28;97645.44;;;7.82;84.15
5062;BME280;2351;50.812;12.872;2023-01-05T07:04:00;97651.56;;;7.82;84.01
5062;BME280;2351;50.812;12.872;2023-01-05T07:06:33;97655.03;;;7.83;83.75
5062;BME280;2351;50.812;12.872;2023-01-05T07:09:05;97652.75;;;7.78;84.06
5062;BME280;2351;50.812;12.872;2023-01-05T07:11:39;97658.03;;;7.78;84.50
5062;BME280;2351;50.812;12.872;2023-01-05T07:14:11;97665.09;;;7.78;84.17
5062;BME280;2351;50.812;12.872;2023-01-05T07:16:43;97666.75;;;7.79;84.37
5062;BME280;2351;50.812;12.872;2023-01-05T07:19:14;97682.72;;;7.77;84.74
5062;BME280;2351;50.812;12.872;2023-01-05T07:21:46;97684.00;;;7.83;84.40
5062;BME280;2351;50.812;12.872;2023-01-05T07:24:18;97691.91;;;7.83;84.25
5062;BME280;2351;50.812;12.872;2023-01-05T07:26:51;97690.38;;;7.80;84.53
5062;BME280;2351;50.812;12.872;2023-01-05T07:29:23;97689.66;;;7.78;84.95
5062;BME280;2351;50.812;12.872;2023-01-05T07:31:54;97682.94;;;7.74;85.24
5062;BME280;2351;50.812;12.872;2023-01-05T07:34:26;97699.72;;;7.73;85.36
5062;BME280;2351;50.812;12.872;2023-01-05T07:36:58;97699.84;;;7.72;85.38
5062;BME280;2351;50.812;12.872;2023-01-05T07:39:29;97704.97;;;7.73;85.10
5062;BME280;2351;50.812;12.872;2023-01-05T07:42:03;97715.75;;;7.70;85.67
5062;BME280;2351;50.812;12.872;2023-01-05T07:44:34;97712.16;;;7.71;85.71
5062;BME280;2351;50.812;12.872;2023-01-05T07:47:07;97716.47;;;7.72;85.92
5062;BME280;2351;50.812;12.872;2023-01-05T07:49:38;97728.91;;;7.70;85.78
5062;BME280;2351;50.812;12.872;2023-01-05T07:52:10;97713.97;;;7.71;85.95
5062;BME280;2351;50.812;12.872;2023-01-05T07:54:42;97720.91;;;7.72;86.35
5062;BME280;2351;50.812;12.872;2023-01-05T07:57:15;97724.50;;;7.71;86.15
5062;BME280;2351;50.812;12.872;2023-01-05T07:59:47;97720.91;;;7.72;86.10
5062;BME280;2351;50.812;12.872;2023-01-05T08:02:19;97713.97;;;7.71;85.88
5062;BME280;2351;50.812;12.872;2023-01-05T08:04:51;97727.13;;;7.71;85.98
5062;BME280;2351;50.812;12.872;2023-01-05T08:07:22;97731.19;;;7.75;85.68
5062;BME280;2351;50.812;12.872;2023-01-05T08:09:54;97737.31;;;7.75;85.23
5062;BME280;2351;50.812;12.872;2023-01-05T08:12:45;97733.59;;;7.78;85.67
5062;BME280;2351;50.812;12.872;2023-01-05T08:15:34;97741.38;;;7.79;84.97
5062;BME280;2351;50.812;12.872;2023-01-05T08:18:06;97750.13;;;7.80;84.96
5062;BME280;2351;50.812;12.872;2023-01-05T08:20:37;97740.53;;;7.79;85.14
5062;BME280;2351;50.812;12.872;2023-01-05T08:23:09;97741.97;;;7.83;84.81
5062;BME280;2351;50.812;12.872;2023-01-05T08:25:41;97743.06;;;7.80;85.04
5062;BME280;2351;50.812;12.872;2023-01-05T08:28:14;97744.63;;;7.83;84.79
5062;BME280;2351;50.812;12.872;2023-01-05T08:30:45;97746.28;;;7.84;84.80
5062;BME280;2351;50.812;12.872;2023-01-05T08:33:17;97758.28;;;7.88;84.61
5062;BME280;2351;50.812;12.872;2023-01-05T08:35:49;97754.69;;;7.89;84.56
5062;BME280;2351;50.812;12.872;2023-01-05T08:38:21;97769.88;;;7.97;84.30
5062;BME280;2351;50.812;12.872;2023-01-05T08:40:52;97781.50;;;8.06;83.84
5062;BME280;2351;50.812;12.872;2023-01-05T08:43:29;97774.91;;;8.11;83.04
5062;BME280;2351;50.812;12.872;2023-01-05T08:46:01;97781.13;;;8.10;83.18
5062;BME280;2351;50.812;12.872;2023-01-05T08:48:32;97775.03;;;8.10;82.78
5062;BME280;2351;50.812;12.872;2023-01-05T08:51:04;97776.81;;;8.09;82.72
5062;BME280;2351;50.812;12.872;2023-01-05T08:53:36;97782.31;;;8.06;82.92
5062;BME280;2351;50.812;12.872;2023-01-05T08:56:08;97790.50;;;8.03;82.97
5062;BME280;2351;50.812;12.872;2023-01-05T08:58:41;97798.41;;;8.03;82.86
5062;BME280;2351;50.812;12.872;2023-01-05T09:01:15;97790.50;;;8.03;82.89
5062;BME280;2351;50.812;12.872;2023-01-05T09:03:47;97787.88;;;8.03;82.79
5062;BME280;2351;50.812;12.872;2023-01-05T09:06:19;97793.13;;;8.03;82.97
5062;BME280;2351;50.812;12.872;2023-01-05T09:08:51;97810.50;;;8.06;82.74
5062;BME280;2351;50.812;12.872;2023-01-05T09:11:24;97790.00;;;8.09;83.19
5062;BME280;2351;50.812;12.872;2023-01-05T09:13:58;97796.13;;;8.10;82.99
5062;BME280;2351;50.812;12.872;2023-01-05T09:16:33;97799.34;;;8.13;83.36
5062;BME280;2351;50.812;12.872;2023-01-05T09:19:05;97790.00;;;8.21;83.56
5062;BME280;2351;50.812;12.872;2023-01-05T09:21:37;97791.19;;;8.28;83.66
5062;BME280;2351;50.812;12.872;2023-01-05T09:24:10;97783.28;;;8.39;83.21
5062;BME280;2351;50.812;12.872;2023-01-05T09:26:42;97807.72;;;8.41;82.04
5062;BME280;2351;50.812;12.872;2023-01-05T09:29:16;97802.31;;;8.43;82.09
5062;BME280;2351;50.812;12.872;2023-01-05T09:31:47;97817.91;;;8.46;82.58
5062;BME280;2351;50.812;12.872;2023-01-05T09:34:19;97827.88;;;8.54;82.46
5062;BME280;2351;50.812;12.872;2023-01-05T09:36:51;97816.50;;;8.53;82.34
5062;BME280;2351;50.812;12.872;2023-01-05T09:39:23;97817.09;;;8.57;82.37
5062;BME280;2351;50.812;12.872;2023-01-05T09:41:56;97814.44;;;8.57;82.53
5062;BME280;2351;50.812;12.872;2023-01-05T09:44:32;97811.81;;;8.57;82.44
5062;BME280;2351;50.812;12.872;2023-01-05T09:47:12;97805.91;;;8.65;82.67
5062;BME280;2351;50.812;12.872;2023-01-05T09:49:48;97814.69;;;8.65;82.73
5062;BME280;2351;50.812;12.872;2023-01-05T09:52:20;97823.78;;;8.61;82.66
5062;BME280;2351;50.812;12.872;2023-01-05T09:54:53;97817.69;;;8.61;82.87
5062;BME280;2351;50.812;12.872;2023-01-05T09:57:27;97819.00;;;8.55;82.89
5062;BME280;2351;50.812;12.872;2023-01-05T10:00:04;97814.81;;;8.52;82.92
5062;BME280;2351;50.812;12.872;2023-01-05T10:02:44;97810.84;;;8.47;83.16
5062;BME280;2351;50.812;12.872;2023-01-05T10:05:17;97817.56;;;8.51;82.98
5062;BME280;2351;50.812;12.872;2023-01-05T10:07:51;97815.06;;;8.49;83.06
5062;BME280;2351;50.812;12.872;2023-01-05T10:10:31;97831.00;;;8.48;82.88
5062;BME280;2351;50.812;12.872;2023-01-05T10:13:20;97813.38;;;8.48;83.00
5062;BME280;2351;50.812;12.872;2023-01-05T10:15:55;97838.03;;;8.47;83.28
5062;BME280;2351;50.812;12.872;2023-01-05T10:18:28;97834.97;;;8.53;83.31
5062;BME280;2351;50.812;12.872;2023-01-05T10:21:07;97824.88;;;8.58;82.42
5062;BME280;2351;50.812;12.872;2023-01-05T10:23:54;97828.47;;;8.57;82.30
5062;BME280;2351;50.812;12.872;2023-01-05T10:26:32;97835.88;;;8.64;82.77
5062;BME280;2351;50.812;12.872;2023-01-05T10:29:10;97824.28;;;8.55;82.40
5062;BME280;2351;50.812;12.872;2023-01-05T10:31:47;97828.59;;;8.56;82.30
5062;BME280;2351;50.812;12.872;2023-01-05T10:34:41;97829.31;;;8.58;82.18
5062;BME280;2351;50.812;12.872;2023-01-05T10:37:32;97827.53;;;8.58;81.75
5062;BME280;2351;50.812;12.872;2023-01-05T10:40:19;97829.06;;;8.61;81.65
5062;BME280;2351;50.812;12.872;2023-01-05T10:43:12;97834.31;;;8.72;81.39
5062;BME280;2351;50.812;12.872;2023-01-05T10:45:49;97821.75;;;8.65;81.13
5062;BME280;2351;50.812;12.872;2023-01-05T10:48:27;97816.94;;;8.70;81.17
5062;BME280;2351;50.812;12.872;2023-01-05T10:50:59;97831.31;;;8.77;81.02
5062;BME280;2351;50.812;12.872;2023-01-05T10:53:34;97830.13;;;8.81;80.03
5062;BME280;2351;50.812;12.872;2023-01-05T10:56:12;97829.97;;;8.83;80.08
5062;BME280;2351;50.812;12.872;2023-01-05T10:58:44;97840.69;;;8.81;80.13
5062;BME280;2351;50.812;12.872;2023-01-05T11:01:22;97833.19;;;8.86;79.77
5062;BME280;2351;50.812;12.872;2023-01-05T11:04:04;97831.91;;;8.81;79.14
5062;BME280;2351;50.812;12.872;2023-01-05T11:06:37;97838.13;;;8.80;79.29
5062;BME280;2351;50.812;12.872;2023-01-05T11:09:16;97840.31;;;8.74;78.99
5062;BME280;2351;50.812;12.872;2023-01-05T11:11:53;97845.34;;;8.78;79.27
5062;BME280;2351;50.812;12.872;2023-01-05T11:14:26;97843.09;;;8.73;79.29
5062;BME280;2351;50.812;12.872;2023-01-05T11:17:01;97851.47;;;8.78;79.24
5062;BME280;2351;50.812;12.872;2023-01-05T11:19:39;97853.72;;;8.83;79.15
5062;BME280;2351;50.812;12.872;2023-01-05T11:22:27;97842.78;;;8.87;78.85
5062;BME280;2351;50.812;12.872;2023-01-05T11:25:16;97853.00;;;8.92;78.42
5062;BME280;2351;50.812;12.872;2023-01-05T11:28:05;97850.59;;;8.89;78.26
5062;BME280;2351;50.812;12.872;2023-01-05T11:30:46;97865.47;;;8.90;78.65
5062;BME280;2351;50.812;12.872;2023-01-05T11:33:28;97863.81;;;8.89;79.03
5062;BME280;2351;50.812;12.872;2023-01-05T11:36:03;97875.44;;;8.86;79.53
5062;BME280;2351;50.812;12.872;2023-01-05T11:38:35;97883.00;;;8.80;80.09
5062;BME280;2351;50.812;12.872;2023-01-05T11:41:10;97878.59;;;8.80;80.20
5062;BME280;2351;50.812;12.872;2023-01-05T11:43:45;97872.06;;;8.84;80.46
5062;BME280;2351;50.812;12.872;2023-01-05T11:46:17;97880.25;;;8.70;80.99
5062;BME280;2351;50.812;12.872;2023-01-05T11:48:51;97885.88;;;8.77;80.63
5062;BME280;2351;50.812;12.872;2023-01-05T11:51:36;97886.41;;;8.70;81.19
5062;BME280;2351;50.812;12.872;2023-01-05T11:54:30;97879.06;;;8.63;81.82
5062;BME280;2351;50.812;12.872;2023-01-05T11:57:20;97884.94;;;8.66;81.52
5062;BME280;2351;50.812;12.872;2023-01-05T11:59:52;97881.22;;;8.69;81.69
5062;BME280;2351;50.812;12.872;2023-01-05T12:02:42;97902.34;;;8.57;81.97
5062;BME280;2351;50.812;12.872;2023-01-05T12:05:26;97897.91;;;8.58;81.76
5062;BME280;2351;50.812;12.872;2023-01-05T12:08:17;97889.03;;;8.59;81.89
5062;BME280;2351;50.812;12.872;2023-01-05T12:10:58;97887.09;;;8.61;81.09
5062;BME280;2351;50.812;12.872;2023-01-05T12:13:59;97906.31;;;8.63;81.50
5062;BME280;2351;50.812;12.872;2023-01-05T12:16:43;97895.03;;;8.61;81.95
5062;BME280;2351;50.812;12.872;2023-01-05T12:19:43;97904.13;;;8.57;82.73
5062;BME280;2351;50.812;12.872;2023-01-05T12:22:40;97895.63;;;8.53;84.07
5062;BME280;2351;50.812;12.872;2023-01-05T12:25:22;97896.69;;;8.51;84.33
5062;BME280;2351;50.812;12.872;2023-01-05T12:31:21;97897.88;;;8.47;83.85
5062;BME280;2351;50.812;12.872;2023-01-05T12:34:08;97902.13;;;8.61;83.60
5062;BME280;2351;50.812;12.872;2023-01-05T12:37:03;97909.19;;;8.71;83.24
5062;BME280;2351;50.812;12.872;2023-01-05T12:39:53;97895.13;;;8.71;83.03
5062;BME280;2351;50.812;12.872;2023-01-05T12:42:56;97895.00;;;8.72;82.42
5062;BME280;2351;50.812;12.872;2023-01-05T12:45:45;97903.63;;;8.74;81.75
5062;BME280;2351;50.812;12.872;2023-01-05T12:48:24;97909.41;;;8.68;81.90
5062;BME280;2351;50.812;12.872;2023-01-05T12:51:05;97917.56;;;8.65;81.99
5062;BME280;2351;50.812;12.872;2023-01-05T12:53:49;97920.06;;;8.67;82.00
5062;BME280;2351;50.812;12.872;2023-01-05T12:56:27;97921.75;;;8.68;81.92
5062;BME280;2351;50.812;12.872;2023-01-05T12:59:13;97934.13;;;8.67;82.04
5062;BME280;2351;50.812;12.872;2023-01-05T13:01:52;97935.81;;;8.68;82.08
5062;BME280;2351;50.812;12.872;2023-01-05T13:04:36;97936.03;;;8.65;81.29
5062;BME280;2351;50.812;12.872;2023-01-05T13:07:14;97926.56;;;8.74;80.95
5062;BME280;2351;50.812;12.872;2023-01-05T13:09:57;97924.16;;;8.71;81.11
5062;BME280;2351;50.812;12.872;2023-01-05T13:12:31;97941.91;;;8.69;81.96
5062;BME280;2351;50.812;12.872;2023-01-05T13:15:14;97932.91;;;8.60;82.59
5062;BME280;2351;50.812;12.872;2023-01-05T13:17:48;97930.03;;;8.52;82.72
5062;BME280;2351;50.812;12.872;2023-01-05T13:20:35;97927.72;;;8.47;83.09
5062;BME280;2351;50.812;12.872;2023-01-05T13:23:14;97944.50;;;8.46;84.09
5062;BME280;2351;50.812;12.872;2023-01-05T13:25:50;97943.47;;;8.60;83.55
5062;BME280;2351;50.812;12.872;2023-01-05T13:28:25;97946.69;;;8.64;83.41
5062;BME280;2351;50.812;12.872;2023-01-05T13:34:16;97939.84;;;8.72;83.11
5062;BME280;2351;50.812;12.872;2023-01-05T13:40:08;97943.84;;;8.78;83.15
5062;BME280;2351;50.812;12.872;2023-01-05T13:43:05;97944.91;;;8.76;82.62
5062;BME280;2351;50.812;12.872;2023-01-05T13:46:01;97956.19;;;8.78;82.55
5062;BME280;2351;50.812;12.872;2023-01-05T13:48:54;97954.16;;;8.81;82.04
5062;BME280;2351;50.812;12.872;2023-01-05T13:51:42;97961.22;;;8.81;81.68
5062;BME280;2351;50.812;12.872;2023-01-05T13:54:19;97959.44;;;8.81;81.52
5062;BME280;2351;50.812;12.872;2023-01-05T13:56:55;97967.09;;;8.73;81.72
5062;BME280;2351;50.812;12.872;2023-01-05T13:59:28;97976.94;;;8.71;81.70
5062;BME280;2351;50.812;12.872;2023-01-05T14:02:02;97966.25;;;8.61;82.08
5062;BME280;2351;50.812;12.872;2023-01-05T14:04:44;97979.59;;;8.59;82.18
5062;BME280;2351;50.812;12.872;2023-01-05T14:07:17;97989.50;;;8.56;82.61
5062;BME280;2351;50.812;12.872;2023-01-05T14:09:50;97987.81;;;8.55;82.51
5062;BME280;2351;50.812;12.872;2023-01-05T14:12:44;97981.97;;;8.51;83.32
5062;BME280;2351;50.812;12.872;2023-01-05T14:15:41;97993.53;;;8.37;84.34
5062;BME280;2351;50.812;12.872;2023-01-05T14:21:44;98000.22;;;8.30;85.38
5062;BME280;2351;50.812;12.872;2023-01-05T14:24:32;98005.84;;;8.25;86.17
5062;BME280;2351;50.812;12.872;2023-01-05T14:27:07;98008.84;;;8.21;86.08
5062;BME280;2351;50.812;12.872;2023-01-05T14:30:18;98018.22;;;8.25;86.33
5062;BME280;2351;50.812;12.872;2023-01-05T14:32:53;98023.81;;;8.20;86.70